Terminal Aerodrome Forecast
Issued by NWS Pueblo, CO

Home | Current Version | Previous Version | Text Only | Print | Product List | Glossary On
Versions: 1 2 3 4 5 6 7 8 9 10 11 12 13 14 15 16 17 18 19 20 21 22
000
FTUS45 KPUB 160532
TAFCOS
TAF
KCOS 160532Z 1606/1706 VRB06KT P6SM SCT200
     FM161100 36012G22KT P6SM SCT200
     FM161700 03012KT P6SM SCT120 BKN200
     FM162000 06010KT P6SM SCT060 BKN140
     FM162300 06010KT P6SM VCSH SCT020 OVC040
     FM170100 10008KT 3SM -SN BR OVC020=

USA.gov is the U.S. government's official web portal to all federal, state and local government web resources and services.